Stanhope, Pennsylvania
Current Conditions -  °F | °C
As of 3:34 PM on Sunday 25 Jan 2015 (Local Time) from KMUI Reporting Station
Broken Clouds Broken Clouds  
Wind Chill: 39°   Ceiling: 2400
Heat Index: 39°   Visibility: 10mi
Dew Point: 32°   Wind: 3mph
Humidity: 75%   Direction: 280°W
Pressure: 29.8"   Gusts: NA
Location:  40.5592°N, 76.3347°W
Report Text: KMUI 252034Z AUTO 28003KT 10SM BKN024 BKN029 04/00 A2980 RMK AO2 BKN024 V FEW
Loading
Personal Weather Stations






























Interactive Weather Map New forecast layout! Learn more

10-Day Weather Forecast

Advertisements
Track Severe Weather on mobile